Kesslers Mill, Virginia
Current Conditions -  °F | °C
As of 9:01 AM on Wednesday 26 Nov 2014 (Local Time) from KROA Reporting Station
Light Snow Light Snow  
Wind Chill: 32°   Ceiling: 1800
Heat Index: 32°   Visibility: 1.5mi
Dew Point: 32°   Wind: 0mph
Humidity: 100%   Direction: NA
Pressure: 30.06"   Gusts: NA
Location:  37.2956°N, 80.1166°W
Report Text: KROA 261401Z 00000KT 1 1/2SM -SN BR FEW003 OVC018 00/00 A3006 RMK AO2 TWR VIS 1 3/4 P0001 T00000000
Loading
Personal Weather Stations






























Interactive Weather Map New forecast layout! Learn more

10-Day Weather Forecast

Advertisements
Track Severe Weather on mobile